sensor_id;sensor_type;location;lat;lon;timestamp;P1;durP1;ratioP1;P2;durP2;ratioP2
59530;SDS011;45349;48.692;8.186;2023-07-20T00:00:51;7.97;;;2.80;;
59530;SDS011;45349;48.692;8.186;2023-07-20T00:03:18;3.93;;;2.40;;
59530;SDS011;45349;48.692;8.186;2023-07-20T00:05:48;6.27;;;2.43;;
59530;SDS011;45349;48.692;8.186;2023-07-20T00:08:15;4.60;;;2.30;;
59530;SDS011;45349;48.692;8.186;2023-07-20T00:10:42;4.73;;;2.63;;
59530;SDS011;45349;48.692;8.186;2023-07-20T00:13:10;4.30;;;2.50;;
59530;SDS011;45349;48.692;8.186;2023-07-20T00:15:37;4.27;;;2.70;;
59530;SDS011;45349;48.692;8.186;2023-07-20T00:18:05;6.87;;;2.53;;
59530;SDS011;45349;48.692;8.186;2023-07-20T00:20:31;5.90;;;2.37;;
59530;SDS011;45349;48.692;8.186;2023-07-20T00:22:58;5.63;;;2.90;;
59530;SDS011;45349;48.692;8.186;2023-07-20T00:25:24;3.97;;;2.40;;
59530;SDS011;45349;48.692;8.186;2023-07-20T00:27:51;5.57;;;2.23;;
59530;SDS011;45349;48.692;8.186;2023-07-20T00:30:20;4.40;;;2.20;;
59530;SDS011;45349;48.692;8.186;2023-07-20T00:32:47;7.90;;;2.40;;
59530;SDS011;45349;48.692;8.186;2023-07-20T00:35:15;8.93;;;2.43;;
59530;SDS011;45349;48.692;8.186;2023-07-20T00:37:41;5.13;;;2.53;;
59530;SDS011;45349;48.692;8.186;2023-07-20T00:40:09;6.23;;;2.37;;
59530;SDS011;45349;48.692;8.186;2023-07-20T00:42:35;6.00;;;2.30;;
59530;SDS011;45349;48.692;8.186;2023-07-20T00:45:02;6.73;;;2.53;;
59530;SDS011;45349;48.692;8.186;2023-07-20T00:47:31;6.07;;;2.40;;
59530;SDS011;45349;48.692;8.186;2023-07-20T00:49:58;4.80;;;2.40;;
59530;SDS011;45349;48.692;8.186;2023-07-20T00:52:25;4.43;;;2.33;;
59530;SDS011;45349;48.692;8.186;2023-07-20T00:54:54;5.93;;;2.20;;
59530;SDS011;45349;48.692;8.186;2023-07-20T00:57:22;2.73;;;2.10;;
59530;SDS011;45349;48.692;8.186;2023-07-20T00:59:50;5.70;;;2.33;;
59530;SDS011;45349;48.692;8.186;2023-07-20T01:02:17;3.67;;;2.37;;
59530;SDS011;45349;48.692;8.186;2023-07-20T01:04:45;8.23;;;2.73;;
59530;SDS011;45349;48.692;8.186;2023-07-20T01:07:12;3.47;;;2.07;;
59530;SDS011;45349;48.692;8.186;2023-07-20T01:09:44;5.97;;;2.17;;
59530;SDS011;45349;48.692;8.186;2023-07-20T01:12:17;7.20;;;2.30;;
59530;SDS011;45349;48.692;8.186;2023-07-20T01:14:49;6.20;;;2.27;;
59530;SDS011;45349;48.692;8.186;2023-07-20T01:17:16;3.17;;;2.03;;
59530;SDS011;45349;48.692;8.186;2023-07-20T01:19:43;3.47;;;2.20;;
59530;SDS011;45349;48.692;8.186;2023-07-20T01:22:13;7.60;;;2.30;;
59530;SDS011;45349;48.692;8.186;2023-07-20T01:24:57;4.37;;;2.30;;
59530;SDS011;45349;48.692;8.186;2023-07-20T01:28:02;5.20;;;2.10;;
59530;SDS011;45349;48.692;8.186;2023-07-20T01:30:50;6.43;;;2.37;;
59530;SDS011;45349;48.692;8.186;2023-07-20T01:33:26;4.50;;;2.40;;
59530;SDS011;45349;48.692;8.186;2023-07-20T01:35:56;5.50;;;2.20;;
59530;SDS011;45349;48.692;8.186;2023-07-20T01:38:24;3.43;;;2.30;;
59530;SDS011;45349;48.692;8.186;2023-07-20T01:40:52;2.50;;;2.00;;
59530;SDS011;45349;48.692;8.186;2023-07-20T01:43:19;5.67;;;2.30;;
59530;SDS011;45349;48.692;8.186;2023-07-20T01:45:46;4.83;;;2.20;;
59530;SDS011;45349;48.692;8.186;2023-07-20T01:48:12;3.63;;;2.40;;
59530;SDS011;45349;48.692;8.186;2023-07-20T01:50:42;4.30;;;2.33;;
59530;SDS011;45349;48.692;8.186;2023-07-20T01:53:09;5.23;;;2.47;;
59530;SDS011;45349;48.692;8.186;2023-07-20T01:55:36;3.90;;;2.47;;
59530;SDS011;45349;48.692;8.186;2023-07-20T01:58:03;4.57;;;2.20;;
59530;SDS011;45349;48.692;8.186;2023-07-20T02:00:31;4.17;;;2.23;;
59530;SDS011;45349;48.692;8.186;2023-07-20T02:02:57;4.30;;;2.70;;
59530;SDS011;45349;48.692;8.186;2023-07-20T02:05:24;10.90;;;2.20;;
59530;SDS011;45349;48.692;8.186;2023-07-20T02:07:52;4.60;;;2.30;;
59530;SDS011;45349;48.692;8.186;2023-07-20T02:10:19;4.37;;;2.20;;
59530;SDS011;45349;48.692;8.186;2023-07-20T02:12:45;3.00;;;2.37;;
59530;SDS011;45349;48.692;8.186;2023-07-20T02:15:12;3.43;;;2.30;;
59530;SDS011;45349;48.692;8.186;2023-07-20T02:17:41;5.37;;;2.50;;
59530;SDS011;45349;48.692;8.186;2023-07-20T02:20:08;6.83;;;2.63;;
59530;SDS011;45349;48.692;8.186;2023-07-20T02:22:35;4.50;;;2.40;;
59530;SDS011;45349;48.692;8.186;2023-07-20T02:25:04;5.67;;;2.40;;
59530;SDS011;45349;48.692;8.186;2023-07-20T02:27:32;5.10;;;2.70;;
59530;SDS011;45349;48.692;8.186;2023-07-20T02:29:59;5.47;;;2.33;;
59530;SDS011;45349;48.692;8.186;2023-07-20T02:32:25;6.83;;;2.60;;
59530;SDS011;45349;48.692;8.186;2023-07-20T02:34:53;7.50;;;2.93;;
59530;SDS011;45349;48.692;8.186;2023-07-20T02:37:19;4.10;;;2.53;;
59530;SDS011;45349;48.692;8.186;2023-07-20T02:39:46;6.43;;;2.50;;
59530;SDS011;45349;48.692;8.186;2023-07-20T02:42:14;4.13;;;2.30;;
59530;SDS011;45349;48.692;8.186;2023-07-20T02:44:40;3.80;;;2.30;;
59530;SDS011;45349;48.692;8.186;2023-07-20T02:47:07;5.57;;;2.37;;
59530;SDS011;45349;48.692;8.186;2023-07-20T02:49:34;4.73;;;2.40;;
59530;SDS011;45349;48.692;8.186;2023-07-20T02:52:00;3.87;;;2.27;;
59530;SDS011;45349;48.692;8.186;2023-07-20T02:54:29;3.93;;;2.53;;
59530;SDS011;45349;48.692;8.186;2023-07-20T02:56:56;6.10;;;2.37;;
59530;SDS011;45349;48.692;8.186;2023-07-20T02:59:24;4.53;;;2.30;;
59530;SDS011;45349;48.692;8.186;2023-07-20T03:01:51;5.00;;;2.87;;
59530;SDS011;45349;48.692;8.186;2023-07-20T03:04:17;7.67;;;2.40;;
59530;SDS011;45349;48.692;8.186;2023-07-20T03:06:48;3.50;;;2.20;;
59530;SDS011;45349;48.692;8.186;2023-07-20T03:09:14;4.27;;;2.10;;
59530;SDS011;45349;48.692;8.186;2023-07-20T03:11:41;4.40;;;2.43;;
59530;SDS011;45349;48.692;8.186;2023-07-20T03:14:10;11.30;;;2.43;;
59530;SDS011;45349;48.692;8.186;2023-07-20T03:16:39;5.83;;;2.37;;
59530;SDS011;45349;48.692;8.186;2023-07-20T03:19:06;2.70;;;2.10;;
59530;SDS011;45349;48.692;8.186;2023-07-20T03:21:34;3.23;;;2.37;;
59530;SDS011;45349;48.692;8.186;2023-07-20T03:24:06;5.07;;;2.60;;
59530;SDS011;45349;48.692;8.186;2023-07-20T03:26:33;3.70;;;2.57;;
59530;SDS011;45349;48.692;8.186;2023-07-20T03:29:00;4.40;;;2.20;;
59530;SDS011;45349;48.692;8.186;2023-07-20T03:31:27;5.43;;;2.30;;
59530;SDS011;45349;48.692;8.186;2023-07-20T03:33:55;4.67;;;2.53;;
59530;SDS011;45349;48.692;8.186;2023-07-20T03:36:22;4.57;;;2.37;;
59530;SDS011;45349;48.692;8.186;2023-07-20T03:38:49;5.97;;;2.47;;
59530;SDS011;45349;48.692;8.186;2023-07-20T03:41:16;4.53;;;2.30;;
59530;SDS011;45349;48.692;8.186;2023-07-20T03:43:42;5.50;;;2.77;;
59530;SDS011;45349;48.692;8.186;2023-07-20T03:46:09;5.60;;;2.80;;
59530;SDS011;45349;48.692;8.186;2023-07-20T03:48:37;5.77;;;2.30;;
59530;SDS011;45349;48.692;8.186;2023-07-20T03:51:05;4.60;;;2.50;;
59530;SDS011;45349;48.692;8.186;2023-07-20T03:53:32;6.97;;;2.00;;
59530;SDS011;45349;48.692;8.186;2023-07-20T03:55:59;6.63;;;2.27;;
59530;SDS011;45349;48.692;8.186;2023-07-20T03:58:26;5.77;;;2.30;;
59530;SDS011;45349;48.692;8.186;2023-07-20T04:00:52;5.93;;;2.10;;
59530;SDS011;45349;48.692;8.186;2023-07-20T04:03:19;4.00;;;2.17;;
59530;SDS011;45349;48.692;8.186;2023-07-20T04:05:46;6.87;;;2.40;;
59530;SDS011;45349;48.692;8.186;2023-07-20T04:08:14;3.00;;;2.13;;
59530;SDS011;45349;48.692;8.186;2023-07-20T04:10:43;5.73;;;2.80;;
59530;SDS011;45349;48.692;8.186;2023-07-20T04:13:10;7.73;;;2.23;;
59530;SDS011;45349;48.692;8.186;2023-07-20T04:15:36;5.20;;;2.37;;
59530;SDS011;45349;48.692;8.186;2023-07-20T04:18:03;5.60;;;2.30;;
59530;SDS011;45349;48.692;8.186;2023-07-20T04:20:30;11.30;;;2.23;;
59530;SDS011;45349;48.692;8.186;2023-07-20T04:22:56;4.53;;;2.10;;
59530;SDS011;45349;48.692;8.186;2023-07-20T04:25:25;4.37;;;2.20;;
59530;SDS011;45349;48.692;8.186;2023-07-20T04:27:52;4.23;;;2.13;;
59530;SDS011;45349;48.692;8.186;2023-07-20T04:30:19;4.73;;;2.50;;
59530;SDS011;45349;48.692;8.186;2023-07-20T04:32:46;6.83;;;2.07;;
59530;SDS011;45349;48.692;8.186;2023-07-20T04:35:16;5.60;;;2.10;;
59530;SDS011;45349;48.692;8.186;2023-07-20T04:37:44;4.17;;;2.13;;
59530;SDS011;45349;48.692;8.186;2023-07-20T04:40:15;4.77;;;2.40;;
59530;SDS011;45349;48.692;8.186;2023-07-20T04:42:43;3.83;;;2.33;;
59530;SDS011;45349;48.692;8.186;2023-07-20T04:45:10;4.87;;;2.37;;
59530;SDS011;45349;48.692;8.186;2023-07-20T04:47:37;3.50;;;2.30;;
59530;SDS011;45349;48.692;8.186;2023-07-20T04:50:04;3.50;;;2.13;;
59530;SDS011;45349;48.692;8.186;2023-07-20T04:52:31;4.83;;;2.20;;
59530;SDS011;45349;48.692;8.186;2023-07-20T04:54:58;3.73;;;2.30;;
59530;SDS011;45349;48.692;8.186;2023-07-20T04:57:25;3.17;;;2.37;;
59530;SDS011;45349;48.692;8.186;2023-07-20T04:59:53;4.33;;;2.10;;
59530;SDS011;45349;48.692;8.186;2023-07-20T05:02:20;3.43;;;2.27;;
59530;SDS011;45349;48.692;8.186;2023-07-20T05:04:46;6.00;;;2.50;;
59530;SDS011;45349;48.692;8.186;2023-07-20T05:07:13;2.90;;;2.10;;
59530;SDS011;45349;48.692;8.186;2023-07-20T05:09:40;4.00;;;2.17;;
59530;SDS011;45349;48.692;8.186;2023-07-20T05:12:07;3.83;;;2.53;;
59530;SDS011;45349;48.692;8.186;2023-07-20T05:14:34;6.00;;;2.70;;
59530;SDS011;45349;48.692;8.186;2023-07-20T05:17:02;5.60;;;2.30;;
59530;SDS011;45349;48.692;8.186;2023-07-20T05:19:29;2.80;;;2.00;;
59530;SDS011;45349;48.692;8.186;2023-07-20T05:21:56;4.83;;;2.40;;
59530;SDS011;45349;48.692;8.186;2023-07-20T05:24:23;4.27;;;2.10;;
59530;SDS011;45349;48.692;8.186;2023-07-20T05:26:51;4.13;;;2.60;;
59530;SDS011;45349;48.692;8.186;2023-07-20T05:29:18;6.50;;;2.60;;
59530;SDS011;45349;48.692;8.186;2023-07-20T05:31:51;4.40;;;2.23;;
59530;SDS011;45349;48.692;8.186;2023-07-20T05:34:18;6.80;;;2.33;;
59530;SDS011;45349;48.692;8.186;2023-07-20T05:36:51;7.43;;;2.37;;
59530;SDS011;45349;48.692;8.186;2023-07-20T05:39:17;4.57;;;2.43;;
59530;SDS011;45349;48.692;8.186;2023-07-20T05:42:08;6.17;;;3.00;;
59530;SDS011;45349;48.692;8.186;2023-07-20T05:44:35;3.83;;;2.20;;
59530;SDS011;45349;48.692;8.186;2023-07-20T05:47:02;4.47;;;2.27;;
59530;SDS011;45349;48.692;8.186;2023-07-20T05:49:30;6.33;;;2.60;;
59530;SDS011;45349;48.692;8.186;2023-07-20T05:51:56;6.30;;;2.77;;
59530;SDS011;45349;48.692;8.186;2023-07-20T05:54:23;8.13;;;2.47;;
59530;SDS011;45349;48.692;8.186;2023-07-20T05:56:52;3.93;;;2.57;;
59530;SDS011;45349;48.692;8.186;2023-07-20T05:59:19;6.27;;;2.90;;
59530;SDS011;45349;48.692;8.186;2023-07-20T06:01:51;4.93;;;2.60;;
59530;SDS011;45349;48.692;8.186;2023-07-20T06:04:18;7.13;;;2.60;;
59530;SDS011;45349;48.692;8.186;2023-07-20T06:06:49;4.73;;;2.80;;
59530;SDS011;45349;48.692;8.186;2023-07-20T06:09:16;5.10;;;2.80;;
59530;SDS011;45349;48.692;8.186;2023-07-20T06:11:42;4.83;;;2.60;;
59530;SDS011;45349;48.692;8.186;2023-07-20T06:14:09;5.90;;;2.70;;
59530;SDS011;45349;48.692;8.186;2023-07-20T06:16:36;4.80;;;2.73;;
59530;SDS011;45349;48.692;8.186;2023-07-20T06:19:02;9.27;;;3.10;;
59530;SDS011;45349;48.692;8.186;2023-07-20T06:21:29;8.03;;;2.70;;
59530;SDS011;45349;48.692;8.186;2023-07-20T06:23:57;7.83;;;2.67;;
59530;SDS011;45349;48.692;8.186;2023-07-20T06:26:23;5.07;;;2.73;;
59530;SDS011;45349;48.692;8.186;2023-07-20T06:28:50;6.13;;;2.60;;
59530;SDS011;45349;48.692;8.186;2023-07-20T06:31:20;3.63;;;2.30;;
59530;SDS011;45349;48.692;8.186;2023-07-20T06:33:46;4.80;;;2.80;;
59530;SDS011;45349;48.692;8.186;2023-07-20T06:36:13;4.00;;;2.60;;
59530;SDS011;45349;48.692;8.186;2023-07-20T06:38:39;8.73;;;2.60;;
59530;SDS011;45349;48.692;8.186;2023-07-20T06:41:07;6.60;;;2.67;;
59530;SDS011;45349;48.692;8.186;2023-07-20T06:43:34;5.50;;;2.80;;
59530;SDS011;45349;48.692;8.186;2023-07-20T06:46:01;10.00;;;2.73;;
59530;SDS011;45349;48.692;8.186;2023-07-20T06:48:27;7.73;;;2.57;;
59530;SDS011;45349;48.692;8.186;2023-07-20T06:50:54;5.77;;;2.60;;
59530;SDS011;45349;48.692;8.186;2023-07-20T06:53:21;7.03;;;2.63;;
59530;SDS011;45349;48.692;8.186;2023-07-20T06:55:47;8.70;;;2.50;;
59530;SDS011;45349;48.692;8.186;2023-07-20T06:58:16;4.50;;;2.33;;
59530;SDS011;45349;48.692;8.186;2023-07-20T07:00:43;10.23;;;2.53;;
59530;SDS011;45349;48.692;8.186;2023-07-20T07:03:09;3.57;;;2.10;;
59530;SDS011;45349;48.692;8.186;2023-07-20T07:05:36;6.23;;;2.33;;
59530;SDS011;45349;48.692;8.186;2023-07-20T07:08:03;5.63;;;2.20;;
59530;SDS011;45349;48.692;8.186;2023-07-20T07:10:30;6.80;;;2.60;;
59530;SDS011;45349;48.692;8.186;2023-07-20T07:12:57;7.30;;;3.93;;
59530;SDS011;45349;48.692;8.186;2023-07-20T07:15:25;5.30;;;2.30;;
59530;SDS011;45349;48.692;8.186;2023-07-20T07:17:52;7.00;;;2.63;;
59530;SDS011;45349;48.692;8.186;2023-07-20T07:20:19;4.83;;;2.50;;
59530;SDS011;45349;48.692;8.186;2023-07-20T07:22:45;3.43;;;2.00;;
59530;SDS011;45349;48.692;8.186;2023-07-20T07:25:13;3.60;;;1.77;;
59530;SDS011;45349;48.692;8.186;2023-07-20T07:27:40;2.67;;;1.53;;
59530;SDS011;45349;48.692;8.186;2023-07-20T07:30:07;5.43;;;1.77;;
59530;SDS011;45349;48.692;8.186;2023-07-20T07:32:35;3.47;;;1.50;;
59530;SDS011;45349;48.692;8.186;2023-07-20T07:35:02;5.07;;;1.57;;
59530;SDS011;45349;48.692;8.186;2023-07-20T07:37:29;2.43;;;1.60;;
59530;SDS011;45349;48.692;8.186;2023-07-20T07:39:56;7.60;;;1.77;;
59530;SDS011;45349;48.692;8.186;2023-07-20T07:42:22;6.03;;;2.00;;
59530;SDS011;45349;48.692;8.186;2023-07-20T07:44:49;5.57;;;2.30;;
59530;SDS011;45349;48.692;8.186;2023-07-20T07:47:15;2.93;;;1.80;;
59530;SDS011;45349;48.692;8.186;2023-07-20T07:49:43;3.67;;;1.87;;
59530;SDS011;45349;48.692;8.186;2023-07-20T07:52:10;3.67;;;1.90;;
59530;SDS011;45349;48.692;8.186;2023-07-20T07:54:37;4.47;;;1.77;;
59530;SDS011;45349;48.692;8.186;2023-07-20T07:57:03;5.63;;;1.90;;
59530;SDS011;45349;48.692;8.186;2023-07-20T07:59:30;5.83;;;1.90;;
59530;SDS011;45349;48.692;8.186;2023-07-20T08:02:01;8.00;;;2.00;;
59530;SDS011;45349;48.692;8.186;2023-07-20T08:04:28;4.50;;;1.80;;
59530;SDS011;45349;48.692;8.186;2023-07-20T08:06:56;4.23;;;2.03;;
59530;SDS011;45349;48.692;8.186;2023-07-20T08:09:22;4.73;;;2.10;;
59530;SDS011;45349;48.692;8.186;2023-07-20T08:11:51;9.87;;;2.50;;
59530;SDS011;45349;48.692;8.186;2023-07-20T08:14:17;6.27;;;2.07;;
59530;SDS011;45349;48.692;8.186;2023-07-20T08:16:51;3.80;;;2.03;;
59530;SDS011;45349;48.692;8.186;2023-07-20T08:19:18;3.97;;;1.90;;
59530;SDS011;45349;48.692;8.186;2023-07-20T08:21:51;4.97;;;2.30;;
59530;SDS011;45349;48.692;8.186;2023-07-20T08:24:19;5.67;;;1.97;;
59530;SDS011;45349;48.692;8.186;2023-07-20T08:26:51;6.57;;;2.23;;
59530;SDS011;45349;48.692;8.186;2023-07-20T08:29:17;9.70;;;2.33;;
59530;SDS011;45349;48.692;8.186;2023-07-20T08:31:44;5.80;;;2.40;;
59530;SDS011;45349;48.692;8.186;2023-07-20T08:34:11;5.50;;;2.23;;
59530;SDS011;45349;48.692;8.186;2023-07-20T08:36:37;5.47;;;2.20;;
59530;SDS011;45349;48.692;8.186;2023-07-20T08:39:04;5.47;;;2.20;;
59530;SDS011;45349;48.692;8.186;2023-07-20T08:41:32;5.37;;;2.30;;
59530;SDS011;45349;48.692;8.186;2023-07-20T08:44:00;4.50;;;2.20;;
59530;SDS011;45349;48.692;8.186;2023-07-20T08:46:27;4.87;;;2.30;;
59530;SDS011;45349;48.692;8.186;2023-07-20T08:48:55;9.43;;;2.77;;
59530;SDS011;45349;48.692;8.186;2023-07-20T08:51:23;7.70;;;2.20;;
59530;SDS011;45349;48.692;8.186;2023-07-20T08:53:51;5.57;;;2.47;;
59530;SDS011;45349;48.692;8.186;2023-07-20T08:56:18;4.30;;;2.30;;
59530;SDS011;45349;48.692;8.186;2023-07-20T08:58:48;18.90;;;3.70;;
59530;SDS011;45349;48.692;8.186;2023-07-20T09:01:15;5.30;;;2.53;;
59530;SDS011;45349;48.692;8.186;2023-07-20T09:03:44;5.30;;;2.23;;
59530;SDS011;45349;48.692;8.186;2023-07-20T09:06:12;4.83;;;2.00;;
59530;SDS011;45349;48.692;8.186;2023-07-20T09:08:38;2.87;;;1.80;;
59530;SDS011;45349;48.692;8.186;2023-07-20T09:11:05;5.57;;;2.00;;
59530;SDS011;45349;48.692;8.186;2023-07-20T09:13:32;6.30;;;1.80;;
59530;SDS011;45349;48.692;8.186;2023-07-20T09:16:00;5.70;;;1.87;;
59530;SDS011;45349;48.692;8.186;2023-07-20T09:18:29;5.67;;;1.87;;
59530;SDS011;45349;48.692;8.186;2023-07-20T09:21:01;3.10;;;1.80;;
59530;SDS011;45349;48.692;8.186;2023-07-20T09:23:29;3.57;;;1.57;;
59530;SDS011;45349;48.692;8.186;2023-07-20T09:25:57;4.03;;;1.73;;
59530;SDS011;45349;48.692;8.186;2023-07-20T09:28:24;4.03;;;1.83;;
59530;SDS011;45349;48.692;8.186;2023-07-20T09:30:51;3.00;;;1.90;;
59530;SDS011;45349;48.692;8.186;2023-07-20T09:33:22;2.17;;;1.70;;
59530;SDS011;45349;48.692;8.186;2023-07-20T09:35:48;4.37;;;1.60;;
59530;SDS011;45349;48.692;8.186;2023-07-20T09:38:15;2.47;;;1.70;;
59530;SDS011;45349;48.692;8.186;2023-07-20T09:40:42;2.20;;;1.40;;
59530;SDS011;45349;48.692;8.186;2023-07-20T09:43:09;5.00;;;1.80;;
59530;SDS011;45349;48.692;8.186;2023-07-20T09:45:39;4.03;;;1.60;;
59530;SDS011;45349;48.692;8.186;2023-07-20T09:48:07;4.40;;;1.77;;
59530;SDS011;45349;48.692;8.186;2023-07-20T09:50:37;4.33;;;1.57;;
59530;SDS011;45349;48.692;8.186;2023-07-20T09:53:07;3.03;;;1.43;;
59530;SDS011;45349;48.692;8.186;2023-07-20T09:55:34;2.13;;;1.30;;
59530;SDS011;45349;48.692;8.186;2023-07-20T09:58:01;3.33;;;1.63;;
59530;SDS011;45349;48.692;8.186;2023-07-20T10:00:29;3.57;;;1.50;;
59530;SDS011;45349;48.692;8.186;2023-07-20T10:02:55;3.90;;;1.70;;
59530;SDS011;45349;48.692;8.186;2023-07-20T10:05:24;4.03;;;1.47;;
59530;SDS011;45349;48.692;8.186;2023-07-20T10:07:55;34.87;;;3.30;;
59530;SDS011;45349;48.692;8.186;2023-07-20T10:10:24;4.37;;;1.60;;
59530;SDS011;45349;48.692;8.186;2023-07-20T10:12:51;3.23;;;1.30;;
59530;SDS011;45349;48.692;8.186;2023-07-20T10:15:19;3.20;;;1.50;;
59530;SDS011;45349;48.692;8.186;2023-07-20T10:17:56;5.90;;;1.60;;
59530;SDS011;45349;48.692;8.186;2023-07-20T10:20:28;4.10;;;1.50;;
59530;SDS011;45349;48.692;8.186;2023-07-20T10:22:57;4.87;;;1.60;;
59530;SDS011;45349;48.692;8.186;2023-07-20T10:25:24;2.83;;;1.77;;
59530;SDS011;45349;48.692;8.186;2023-07-20T10:27:51;3.23;;;1.57;;
59530;SDS011;45349;48.692;8.186;2023-07-20T10:30:18;2.90;;;1.30;;
59530;SDS011;45349;48.692;8.186;2023-07-20T10:32:45;6.33;;;1.53;;
59530;SDS011;45349;48.692;8.186;2023-07-20T10:35:13;4.67;;;1.67;;
59530;SDS011;45349;48.692;8.186;2023-07-20T10:37:47;2.90;;;1.40;;
59530;SDS011;45349;48.692;8.186;2023-07-20T10:40:27;4.33;;;1.50;;
59530;SDS011;45349;48.692;8.186;2023-07-20T10:42:59;2.87;;;1.33;;
59530;SDS011;45349;48.692;8.186;2023-07-20T10:45:34;2.80;;;1.53;;
59530;SDS011;45349;48.692;8.186;2023-07-20T10:48:14;3.90;;;1.40;;
59530;SDS011;45349;48.692;8.186;2023-07-20T10:50:42;4.80;;;1.30;;
59530;SDS011;45349;48.692;8.186;2023-07-20T10:53:10;3.63;;;1.40;;
59530;SDS011;45349;48.692;8.186;2023-07-20T10:55:39;3.73;;;1.27;;
59530;SDS011;45349;48.692;8.186;2023-07-20T10:58:10;2.20;;;1.50;;
59530;SDS011;45349;48.692;8.186;2023-07-20T11:00:54;4.23;;;1.57;;
59530;SDS011;45349;48.692;8.186;2023-07-20T11:03:27;2.53;;;1.40;;
59530;SDS011;45349;48.692;8.186;2023-07-20T11:05:56;2.50;;;1.13;;
59530;SDS011;45349;48.692;8.186;2023-07-20T11:08:37;2.83;;;1.33;;
59530;SDS011;45349;48.692;8.186;2023-07-20T11:11:24;2.27;;;1.20;;
59530;SDS011;45349;48.692;8.186;2023-07-20T11:13:55;4.00;;;1.53;;
59530;SDS011;45349;48.692;8.186;2023-07-20T11:19:13;2.37;;;1.33;;
59530;SDS011;45349;48.692;8.186;2023-07-20T11:21:42;3.60;;;1.30;;
59530;SDS011;45349;48.692;8.186;2023-07-20T11:24:10;1.73;;;1.27;;
59530;SDS011;45349;48.692;8.186;2023-07-20T11:26:43;1.60;;;1.10;;
59530;SDS011;45349;48.692;8.186;2023-07-20T11:29:11;2.83;;;1.57;;
59530;SDS011;45349;48.692;8.186;2023-07-20T11:31:38;2.57;;;1.47;;
59530;SDS011;45349;48.692;8.186;2023-07-20T11:34:06;2.70;;;1.23;;
59530;SDS011;45349;48.692;8.186;2023-07-20T11:36:36;2.00;;;1.20;;
59530;SDS011;45349;48.692;8.186;2023-07-20T11:39:03;3.63;;;1.30;;
59530;SDS011;45349;48.692;8.186;2023-07-20T11:41:30;2.53;;;1.20;;
59530;SDS011;45349;48.692;8.186;2023-07-20T11:43:59;2.53;;;1.40;;
59530;SDS011;45349;48.692;8.186;2023-07-20T11:46:27;1.50;;;1.20;;
59530;SDS011;45349;48.692;8.186;2023-07-20T11:48:57;3.40;;;1.30;;
59530;SDS011;45349;48.692;8.186;2023-07-20T11:51:25;2.97;;;1.20;;
59530;SDS011;45349;48.692;8.186;2023-07-20T11:53:53;4.43;;;1.13;;
59530;SDS011;45349;48.692;8.186;2023-07-20T11:56:20;2.07;;;1.20;;
59530;SDS011;45349;48.692;8.186;2023-07-20T11:58:46;2.90;;;1.30;;
59530;SDS011;45349;48.692;8.186;2023-07-20T12:01:14;2.37;;;1.10;;
59530;SDS011;45349;48.692;8.186;2023-07-20T12:03:42;4.83;;;1.13;;
59530;SDS011;45349;48.692;8.186;2023-07-20T12:06:08;3.80;;;1.40;;
59530;SDS011;45349;48.692;8.186;2023-07-20T12:08:38;2.27;;;1.33;;
59530;SDS011;45349;48.692;8.186;2023-07-20T12:11:05;4.23;;;1.30;;
59530;SDS011;45349;48.692;8.186;2023-07-20T12:13:36;2.80;;;1.20;;
59530;SDS011;45349;48.692;8.186;2023-07-20T12:16:08;1.87;;;1.20;;
59530;SDS011;45349;48.692;8.186;2023-07-20T12:18:37;3.33;;;1.40;;
59530;SDS011;45349;48.692;8.186;2023-07-20T12:21:05;1.57;;;1.30;;
59530;SDS011;45349;48.692;8.186;2023-07-20T12:23:35;3.37;;;1.20;;
59530;SDS011;45349;48.692;8.186;2023-07-20T12:26:03;5.07;;;1.50;;
59530;SDS011;45349;48.692;8.186;2023-07-20T12:28:33;3.10;;;1.30;;
59530;SDS011;45349;48.692;8.186;2023-07-20T12:30:59;3.37;;;1.37;;
59530;SDS011;45349;48.692;8.186;2023-07-20T12:33:26;6.00;;;1.20;;
59530;SDS011;45349;48.692;8.186;2023-07-20T12:35:54;2.30;;;1.10;;
59530;SDS011;45349;48.692;8.186;2023-07-20T12:38:23;2.40;;;1.37;;
59530;SDS011;45349;48.692;8.186;2023-07-20T12:40:50;4.27;;;1.23;;
59530;SDS011;45349;48.692;8.186;2023-07-20T12:43:17;1.87;;;1.20;;
59530;SDS011;45349;48.692;8.186;2023-07-20T12:45:43;2.77;;;1.30;;
59530;SDS011;45349;48.692;8.186;2023-07-20T12:48:10;2.13;;;1.17;;
59530;SDS011;45349;48.692;8.186;2023-07-20T12:50:36;3.90;;;1.70;;
59530;SDS011;45349;48.692;8.186;2023-07-20T12:53:04;2.43;;;1.37;;
59530;SDS011;45349;48.692;8.186;2023-07-20T12:55:31;2.47;;;1.23;;
59530;SDS011;45349;48.692;8.186;2023-07-20T12:57:58;3.37;;;1.10;;
59530;SDS011;45349;48.692;8.186;2023-07-20T13:00:24;3.33;;;1.10;;
59530;SDS011;45349;48.692;8.186;2023-07-20T13:02:51;1.93;;;1.13;;
59530;SDS011;45349;48.692;8.186;2023-07-20T13:05:18;2.80;;;1.53;;
59530;SDS011;45349;48.692;8.186;2023-07-20T13:07:44;3.13;;;1.27;;
59530;SDS011;45349;48.692;8.186;2023-07-20T13:10:12;1.57;;;1.23;;
59530;SDS011;45349;48.692;8.186;2023-07-20T13:12:39;1.98;;;1.38;;
59530;SDS011;45349;48.692;8.186;2023-07-20T13:15:06;2.30;;;1.20;;
59530;SDS011;45349;48.692;8.186;2023-07-20T13:17:33;1.67;;;1.17;;
59530;SDS011;45349;48.692;8.186;2023-07-20T13:20:00;3.10;;;0.97;;
59530;SDS011;45349;48.692;8.186;2023-07-20T13:22:29;1.98;;;1.10;;
59530;SDS011;45349;48.692;8.186;2023-07-20T13:24:56;2.28;;;1.40;;
59530;SDS011;45349;48.692;8.186;2023-07-20T13:27:24;2.23;;;1.17;;
59530;SDS011;45349;48.692;8.186;2023-07-20T13:29:51;1.93;;;1.10;;
59530;SDS011;45349;48.692;8.186;2023-07-20T13:32:18;1.53;;;1.10;;
59530;SDS011;45349;48.692;8.186;2023-07-20T13:34:44;2.73;;;1.30;;
59530;SDS011;45349;48.692;8.186;2023-07-20T13:37:11;3.93;;;1.40;;
59530;SDS011;45349;48.692;8.186;2023-07-20T13:39:38;1.57;;;1.17;;
59530;SDS011;45349;48.692;8.186;2023-07-20T13:42:05;2.23;;;1.20;;
59530;SDS011;45349;48.692;8.186;2023-07-20T13:44:33;2.00;;;1.17;;
59530;SDS011;45349;48.692;8.186;2023-07-20T13:47:00;4.03;;;1.17;;
59530;SDS011;45349;48.692;8.186;2023-07-20T13:49:28;2.20;;;1.20;;
59530;SDS011;45349;48.692;8.186;2023-07-20T13:51:55;4.83;;;1.30;;
59530;SDS011;45349;48.692;8.186;2023-07-20T13:54:22;2.80;;;1.40;;
59530;SDS011;45349;48.692;8.186;2023-07-20T13:56:51;2.93;;;1.13;;
59530;SDS011;45349;48.692;8.186;2023-07-20T13:59:17;2.30;;;1.20;;
59530;SDS011;45349;48.692;8.186;2023-07-20T14:02:13;3.33;;;1.60;;
59530;SDS011;45349;48.692;8.186;2023-07-20T14:04:40;4.77;;;1.30;;
59530;SDS011;45349;48.692;8.186;2023-07-20T14:07:06;6.73;;;1.37;;
59530;SDS011;45349;48.692;8.186;2023-07-20T14:09:33;3.97;;;1.40;;
59530;SDS011;45349;48.692;8.186;2023-07-20T14:11:59;3.00;;;1.30;;
59530;SDS011;45349;48.692;8.186;2023-07-20T14:14:26;2.38;;;1.17;;
59530;SDS011;45349;48.692;8.186;2023-07-20T14:16:53;2.15;;;1.08;;
59530;SDS011;45349;48.692;8.186;2023-07-20T14:19:21;3.17;;;1.30;;
59530;SDS011;45349;48.692;8.186;2023-07-20T14:21:51;2.67;;;1.37;;
59530;SDS011;45349;48.692;8.186;2023-07-20T14:24:17;2.23;;;1.37;;
59530;SDS011;45349;48.692;8.186;2023-07-20T14:26:48;1.48;;;1.02;;
59530;SDS011;45349;48.692;8.186;2023-07-20T14:29:15;1.75;;;1.23;;
59530;SDS011;45349;48.692;8.186;2023-07-20T14:31:43;1.70;;;1.13;;
59530;SDS011;45349;48.692;8.186;2023-07-20T14:34:09;2.07;;;1.20;;
59530;SDS011;45349;48.692;8.186;2023-07-20T14:36:37;2.43;;;1.20;;
59530;SDS011;45349;48.692;8.186;2023-07-20T14:39:04;2.70;;;1.20;;
59530;SDS011;45349;48.692;8.186;2023-07-20T14:41:30;2.43;;;1.30;;
59530;SDS011;45349;48.692;8.186;2023-07-20T14:43:57;2.10;;;1.10;;
59530;SDS011;45349;48.692;8.186;2023-07-20T14:46:24;2.73;;;1.20;;
59530;SDS011;45349;48.692;8.186;2023-07-20T14:48:50;1.40;;;1.00;;
59530;SDS011;45349;48.692;8.186;2023-07-20T14:51:17;2.88;;;1.23;;
59530;SDS011;45349;48.692;8.186;2023-07-20T14:53:45;1.70;;;1.20;;
59530;SDS011;45349;48.692;8.186;2023-07-20T14:56:11;1.75;;;1.13;;